TAF KSFO
KSFO 280530Z 2806/2912 VRB03KT P6SM FEW008 FEW200 FM290100 30007KT P6SM SKC FM290600 VRB03KT P6SM FEW007=
METAR KSFO
WC KSFO
WS KSFO
WV KSFO